Latest Coastal Weather Observations for Sunshine Coast Airport

IDQ60701

Issued at 1:12 pm EST Wednesday 16 October 2019 (issued every 10 minutes, with the page automatically refreshed every 10 minutes)

About coastal observations | Map of coastal stations | Coastal observations for QLD | Marine services | Other Formats
Station Details ID: 040861 Name: SUNSHINE COAST AIRPORT Lat: -26.60 Lon: 153.09 Height: 3.42 m
Data from the previous 72 hours. | See also: Recent months at Sunshine Coast Airport
Date/Time
EST
Wind Sea
Height
m
Swell Vis
km
Cloud Weather Temp
°C
Press
hPa
Rain since
9am
mm
Dir  Spd
kts
Gust
kts
Height
m
Period
s
Dir
16/01:00pm NNE 18 23 - - - - 10 Partly cloudy - 25.5 1013.5 0.0
16/12:30pm NNE 19 22 - - - - 10 - - 25.4 1013.9 0.0
16/12:00pm NNE 18 22 - - - - 10 Mostly clear - 25.8 1014.3 0.0
16/11:30am NNE 17 22 - - - - 10 Partly cloudy - 26.4 1014.8 0.0
16/11:00am NNE 15 18 - - - - 10 Partly cloudy - 24.5 1015.1 0.0
16/10:30am NNE 14 18 - - - - 10 Partly cloudy - 25.3 1015.7 0.0
16/10:00am NNE 11 15 - - - - 10 Partly cloudy - 24.8 1016.2 0.0
16/09:30am N 9 13 - - - - 10 Partly cloudy - 24.9 1016.5 0.0
16/09:00am NNW 11 15 - - - - 10 Cloudy - 24.7 1016.6 0.2
16/08:42am NNW 12 17 - - - - 10 Partly cloudy - 24.3 1016.5 0.2
16/08:30am NW 10 17 - - - - 10 Partly cloudy - 24.3 1016.4 0.2
16/08:06am NNW 10 15 - - - - 10 Partly cloudy - 23.6 1016.4 0.2
16/08:00am N 11 16 - - - - 10 Partly cloudy - 23.9 1016.3 0.2
16/07:30am N 9 14 - - - - 10 Partly cloudy - 22.4 1016.2 0.2
16/07:00am NW 7 12 - - - - 10 Partly cloudy - 21.9 1016.2 0.2
16/06:30am NNW 8 10 - - - - 10 Partly cloudy - 20.6 1015.9 0.2
16/06:00am NNW 6 8 - - - - 10 Cloudy - 19.7 1015.9 0.2
16/05:37am NW 5 6 - - - - 10 Cloudy - 18.9 1015.8 0.2
16/05:30am NW 5 6 - - - - 10 Partly cloudy - 18.9 1015.8 0.2
16/05:00am NW 5 5 - - - - 10 Cloudy - 18.9 1015.6 0.2
16/04:36am NNW 4 5 - - - - 10 Partly cloudy - 18.6 1015.4 0.2
16/04:30am N 3 5 - - - - 10 Partly cloudy - 18.5 1015.3 0.2
16/04:00am N 5 5 - - - - 10 Partly cloudy - 18.5 1014.7 0.2
16/03:30am NNE 4 5 - - - - 10 Partly cloudy - 18.1 1014.4 0.2
16/03:00am CALM 0 0 - - - - 10 - - 18.5 1014.2 0.2
16/02:30am NNW 4 5 - - - - 10 - - 18.7 1013.9 0.2
16/02:00am NW 5 7 - - - - 10 - - 18.7 1013.9 0.2
16/01:30am NNW 5 6 - - - - 10 - - 19.3 1014.1 0.2
16/01:00am N 6 9 - - - - 10 Partly cloudy - 19.5 1014.1 0.2
16/12:30am N 7 9 - - - - 10 - - 19.4 1014.5 0.2
16/12:00am N 5 7 - - - - 10 - - 19.5 1014.4 0.2
 
Date/Time
EST
Wind Sea
Height
m
Swell Vis
km
Cloud Weather Temp
°C
Press
hPa
Rain since
9am
mm
Dir  Spd
kts
Gust
kts
Height
m
Period
s
Dir
15/11:30pm NNW 10 13 - - - - 10 Partly cloudy - 19.9 1014.1 0.2
15/11:00pm NNW 7 9 - - - - 10 Partly cloudy - 20.0 1014.3 0.2
15/10:30pm NNW 6 7 - - - - 10 Partly cloudy - 20.3 1014.4 0.2
15/10:00pm NNW 5 6 - - - - 10 Cloudy - 20.2 1014.3 0.2
15/09:30pm NNW 5 7 - - - - 10 Partly cloudy - 20.1 1014.1 0.2
15/09:00pm NNW 5 7 - - - - 10 - - 19.9 1013.9 0.2
15/08:30pm NW 5 7 - - - - 10 - - 20.7 1013.6 0.2
15/08:00pm N 10 13 - - - - 10 - - 21.4 1013.1 0.2
15/07:30pm N 9 13 - - - - 10 - - 21.5 1012.9 0.2
15/07:00pm NNE 12 16 - - - - 10 - - 21.8 1012.4 0.2
15/06:30pm NNE 13 17 - - - - 10 - - 21.9 1011.9 0.2
15/06:00pm NNE 14 19 - - - - 10 - - 22.0 1011.6 0.2
15/05:30pm NNE 15 20 - - - - 10 - - 22.2 1011.0 0.2
15/05:00pm NNE 17 21 - - - - 10 - - 22.9 1010.6 0.2
15/04:30pm NNE 15 19 - - - - 10 - - 23.5 1010.5 0.2
15/04:00pm NNE 15 19 - - - - 10 - - 23.9 1010.3 0.2
15/03:30pm NNE 15 19 - - - - 10 - - 24.2 1010.4 0.2
15/03:00pm NNE 15 19 - - - - 10 - - 24.9 1010.6 0.2
15/02:30pm NNE 16 20 - - - - 10 - - 24.9 1010.7 0.2
15/02:00pm NNE 16 19 - - - - 10 Partly cloudy - 24.7 1011.0 0.2
15/01:50pm NNE 17 20 - - - - 10 - - 25.3 1011.1 0.2
15/01:30pm NNE 16 21 - - - - 2 Partly cloudy - 25.0 1011.3 0.2
15/01:27pm NNE 15 20 - - - - 2 Partly cloudy - 25.3 1011.3 0.2
15/01:00pm NNE 16 20 - - - - 10 Partly cloudy - 25.5 1011.7 0.2
15/12:30pm NNE 17 22 - - - - 10 Partly cloudy - 25.1 1012.3 0.2
15/12:00pm NNE 14 18 - - - - 10 Cloudy - 24.3 1012.9 0.2
15/11:30am NE 14 17 - - - - 10 Partly cloudy - 24.1 1013.3 0.2
15/11:00am N 12 18 - - - - 10 Partly cloudy - 24.9 1013.7 0.2
15/10:30am N 13 19 - - - - 10 Partly cloudy - 24.0 1013.9 0.2
15/10:00am NNW 11 16 - - - - 10 Partly cloudy - 23.5 1014.4 0.2
15/09:30am NNW 11 16 - - - - 10 Partly cloudy - 23.3 1014.6 0.0
15/09:00am NW 8 14 - - - - 10 Cloudy - 21.5 1015.0 3.4
15/08:30am NNW 7 12 - - - - 10 Partly cloudy - 21.3 1015.4 3.4
15/08:00am N 8 10 - - - - 10 Cloudy - 20.0 1015.3 3.4
15/07:30am NNW 7 9 - - - - 10 Partly cloudy - 20.0 1015.2 3.4
15/07:00am N 6 8 - - - - 10 Partly cloudy - 20.4 1014.8 3.4
15/06:30am N 4 6 - - - - 10 Partly cloudy - 19.6 1014.7 3.4
15/06:00am NW 5 7 - - - - 10 Cloudy - 18.3 1014.5 3.4
15/05:30am N 5 6 - - - - 10 Cloudy - 18.2 1014.4 3.4
15/05:00am N 4 5 - - - - 10 Cloudy - 18.0 1014.2 3.4
15/04:30am N 3 4 - - - - 10 Cloudy - 18.1 1014.2 3.4
15/04:00am N 2 5 - - - - 10 Cloudy - 18.2 1014.1 3.4
15/03:30am WSW 8 13 - - - - 10 Partly cloudy - 18.6 1014.1 3.4
15/03:00am WNW 9 15 - - - - 10 Cloudy Showers 17.6 1013.5 1.6
15/02:37am WNW 9 15 - - - - 10 Partly cloudy - 17.5 1013.2 1.2
15/02:30am WNW 10 15 - - - - 10 Partly cloudy - 17.6 1015.3 1.2
15/02:00am NNW 8 11 - - - - 10 Partly cloudy - 17.9 1013.8 0.4
15/01:30am NNW 7 9 - - - - 10 Partly cloudy - 18.0 1014.3 0.0
15/01:00am NNW 8 9 - - - - 10 Partly cloudy - 17.3 1014.5 0.0
15/12:30am NNW 6 7 - - - - 10 Partly cloudy - 17.0 1014.8 0.0
15/12:00am NNW 9 11 - - - - 10 Mostly clear - 17.6 1015.0 0.0
 
Date/Time
EST
Wind Sea
Height
m
Swell Vis
km
Cloud Weather Temp
°C
Press
hPa
Rain since
9am
mm
Dir  Spd
kts
Gust
kts
Height
m
Period
s
Dir
14/11:30pm NNW 8 10 - - - - 10 Partly cloudy - 17.8 1015.0 0.0
14/11:00pm NNW 8 10 - - - - 10 - - 17.7 1015.1 0.0
14/10:30pm NNW 7 10 - - - - 10 - - 18.0 1015.3 0.0
14/10:00pm NW 7 8 - - - - 10 - - 17.8 1015.5 0.0
14/09:30pm N 9 13 - - - - 10 - - 19.7 1015.5 0.0
14/09:00pm N 9 12 - - - - 10 Partly cloudy - 19.8 1015.7 0.0
14/08:30pm N 9 14 - - - - 10 - - 19.9 1015.7 0.0
14/08:00pm N 9 13 - - - - 10 - - 20.0 1015.8 0.0
14/07:30pm N 8 13 - - - - 10 - - 19.9 1015.7 0.0
14/07:00pm N 11 15 - - - - 10 - - 20.4 1015.3 0.0
14/06:30pm NNE 12 16 - - - - 10 - - 20.7 1015.0 0.0
14/06:00pm NNE 13 19 - - - - 10 - - 20.9 1014.7 0.0
14/05:30pm NNE 13 16 - - - - 10 - - 21.1 1014.6 0.0
14/05:00pm NNE 13 17 - - - - 10 - - 21.6 1014.4 0.0
14/04:30pm NNE 14 17 - - - - 10 - - 22.2 1014.4 0.0
14/04:00pm NE 13 17 - - - - 10 - - 22.6 1014.3 0.0
14/03:30pm NNE 14 17 - - - - 10 - - 22.9 1014.4 0.0
14/03:00pm NE 14 17 - - - - 10 - - 23.2 1014.6 0.0
14/02:30pm NNE 14 17 - - - - 10 - - 23.6 1014.8 0.0
14/02:00pm NE 15 18 - - - - 10 - - 23.4 1015.0 0.0
14/01:30pm NE 14 17 - - - - 10 - - 23.5 1015.6 0.0
14/01:00pm NE 13 18 - - - - 10 - - 23.5 1016.0 0.0
14/12:30pm NE 13 16 - - - - 10 - - 23.3 1016.5 0.0
14/12:00pm NE 12 15 - - - - 10 - - 23.4 1017.2 0.0
14/11:30am NE 11 14 - - - - 10 Partly cloudy - 22.9 1017.6 0.0
14/11:00am NE 11 13 - - - - 10 Partly cloudy - 22.9 1018.1 0.0
14/10:30am ENE 9 12 - - - - 10 Partly cloudy - 22.4 1018.5 0.0
14/10:00am ENE 8 10 - - - - 10 Partly cloudy - 22.2 1019.0 0.0
14/09:30am ENE 8 10 - - - - 10 Partly cloudy - 21.7 1019.1 0.0
14/09:00am E 7 9 - - - - 10 Cloudy - 21.5 1019.4 0.0
14/08:30am E 5 8 - - - - 10 Partly cloudy - 21.2 1019.3 0.0
14/08:00am NW 3 4 - - - - 10 - - 20.5 1019.4 0.0
14/07:30am SSW 4 7 - - - - 10 - - 19.4 1019.5 0.0
14/07:00am SW 6 8 - - - - 10 - - 18.3 1019.4 0.0
14/06:32am SW 5 7 - - - - 10 - - 17.5 1019.3 0.0
14/06:30am SW 5 7 - - - - 10 - - 17.4 1019.3 0.0
14/06:00am W 4 6 - - - - 4 Mostly clear - 15.7 1019.1 0.0
14/05:59am W 4 5 - - - - 5 Partly cloudy - 15.7 1019.1 0.0
14/05:56am WNW 4 4 - - - - 10 Partly cloudy - 15.5 1019.0 0.0
14/05:30am W 5 6 - - - - 5 Cloudy - 15.3 1018.9 0.0
14/05:00am WSW 5 5 - - - - 3 Partly cloudy - 15.4 1018.5 0.0
14/04:45am WSW 4 5 - - - - 6 Partly cloudy - 15.4 1018.3 0.0
14/04:34am WSW 3 4 - - - - 10 Partly cloudy - 15.2 1018.0 0.0
14/04:30am WSW 3 4 - - - - 10 Partly cloudy - 15.4 1018.0 0.0
14/04:00am WSW 5 6 - - - - 3 Partly cloudy - 15.7 1018.0 0.0
14/03:30am WSW 5 6 - - - - 3 Partly cloudy - 15.0 1018.0 0.0
14/03:18am W 5 5 - - - - 6 Partly cloudy - 15.0 1018.0 0.0
14/03:15am WNW 4 5 - - - - 10 Partly cloudy - 14.8 1018.0 0.0
14/03:00am WSW 5 5 - - - - 4 Cloudy - 15.3 1018.1 0.0
14/02:30am SW 4 5 - - - - 4 Partly cloudy - 16.1 1018.1 0.0
14/02:02am WSW 4 5 - - - - 6 Partly cloudy - 16.0 1018.4 0.0
14/02:00am WSW 4 5 - - - - 8 Partly cloudy - 16.0 1018.4 0.0
14/01:37am WSW 3 4 - - - - 10 Partly cloudy - 16.4 1018.3 0.0
14/01:30am WSW 4 5 - - - - 10 - - 16.5 1018.4 0.0
14/01:18am W 4 5 - - - - 6 Partly cloudy - 16.4 1018.7 0.0
14/01:00am W 4 5 - - - - 7 Partly cloudy - 16.4 1018.8 0.0
14/12:30am WSW 4 6 - - - - 10 Partly cloudy - 16.6 1019.0 0.0
14/12:23am SW 4 6 - - - - 10 Partly cloudy - 16.7 1019.0 0.0
14/12:07am WSW 4 5 - - - - 6 Partly cloudy - 16.5 1018.9 0.0
14/12:00am W 3 5 - - - - 10 Cloudy - 16.4 1018.9 0.0
 
Date/Time
EST
Wind Sea
Height
m
Swell Vis
km
Cloud Weather Temp
°C
Press
hPa
Rain since
9am
mm
Dir  Spd
kts
Gust
kts
Height
m
Period
s
Dir
13/11:30pm W 4 5 - - - - 9 Partly cloudy - 16.5 1019.1 0.0
13/11:17pm WSW 5 6 - - - - 7 Partly cloudy - 16.8 1019.2 0.0
13/11:04pm WSW 5 6 - - - - 6 Partly cloudy - 16.9 1019.0 0.0
13/11:00pm WSW 5 7 - - - - 7 Partly cloudy - 16.9 1019.0 0.0
13/10:30pm SW 5 6 - - - - 10 Partly cloudy - 17.1 1018.8 0.0
13/10:00pm SSE 9 15 - - - - 10 Partly cloudy - 18.9 1018.7 0.0
13/09:30pm SE 11 16 - - - - 10 Partly cloudy - 20.1 1018.8 0.0
13/09:00pm SSE 11 16 - - - - 10 Cloudy - 20.3 1018.9 0.0
13/08:30pm SSE 12 17 - - - - 10 Partly cloudy - 20.3 1018.7 0.0
13/08:00pm SE 12 17 - - - - 10 Partly cloudy - 20.2 1018.5 0.0
13/07:30pm SE 14 18 - - - - 10 Partly cloudy - 20.1 1018.1 0.0
13/07:00pm SE 14 21 - - - - 10 - - 20.0 1017.6 0.0
13/06:30pm SE 15 21 - - - - 10 - - 20.1 1017.3 0.0
13/06:00pm SE 15 20 - - - - 10 - - 20.1 1017.1 0.0
13/05:30pm SE 16 20 - - - - 10 - - 20.3 1016.5 0.0
13/05:00pm SE 15 20 - - - - 10 - - 20.7 1016.2 0.0
13/04:30pm SE 16 21 - - - - 10 - - 21.0 1016.0 0.0
13/04:00pm SE 15 19 - - - - 10 - - 21.5 1015.6 0.0
13/03:30pm SE 16 21 - - - - 10 - - 21.4 1015.2 0.0
13/03:00pm SE 15 20 - - - - 10 - - 22.4 1015.2 0.0
13/02:30pm SE 16 20 - - - - 10 - - 21.8 1015.4 0.0
13/02:00pm SE 16 20 - - - - 10 - - 22.9 1015.6 0.0
13/01:30pm SE 14 18 - - - - 10 - - 22.6 1015.8 0.0

Other formats

Comma delimited format used in spreadsheet applications
http://www.bom.gov.au/fwo/IDQ60701/IDQ60701.94569.axf

JavaScript Object Notation format (JSON) in row-major order
http://www.bom.gov.au/fwo/IDQ60701/IDQ60701.94569.json

Data quality

Most of these data are generated automatically and are frequently updated. Quality checks on data are not normally performed. It is possible for incorrect values to appear. Refer to information at About Latest Weather Observations and please check the disclaimer before using these data.